Overview Statistics Trail Chart Weather Telemetry Raw packets
 

This is the latest recevied weather packets stored in our database for station/object KGRR-WX. If no packets are shown the sender has not sent any weather packets the latest 10 day(s).

<< 30 31 32 33 34 35 36 >>
Time Temp. Humidity Pressure Rain* Wind** Luminosity Snow
1787881505 20° C 59% 987.8 hPa 0 mm - - -
1787880611 20° C 59% 987.8 hPa 0 mm - - -
1787879705 20.56° C 54% 988.6 hPa 0 mm - - -
1787878806 21.11° C 54% 988.6 hPa 0 mm - - -
1787877904 21.67° C 47% 988.8 hPa 0 mm - - -
1787877005 22.22° C 47% 988.8 hPa 0 mm - - -
1787876109 22.78° C 47% 988.8 hPa 0 mm - - -
1787875212 23.89° C 47% 988.8 hPa 0 mm - - -
1787874305 24.44° C 49% 987.7 hPa 0 mm - - -
1787873409 25° C 48% 987.3 hPa 0 mm - - -
1787872505 25° C 48% 987.3 hPa 0 mm - - -
1787871608 24.44° C 48% 987.3 hPa 0 mm - - -
1787870705 24.44° C 46% 987.4 hPa 0 mm - - -
1787869806 25.56° C 44% 987.6 hPa 0 mm - - -
1787868908 26.11° C 44% 987.6 hPa 0 mm - - -
1787868010 26.11° C 44% 987.6 hPa 0 mm - - -
1787867108 26.11° C 56% 986.7 hPa 0 mm - - -
1787866209 26.11° C 42% 987 hPa 0 mm - - -
1787865311 26.11° C 42% 987 hPa 0 mm - - -
1787864405 26.11° C 42% 987 hPa 0 mm - - -
1787863506 26.67° C 45% 987.1 hPa 0 mm - - -
1787862608 26.67° C 46% 987 hPa 0 mm - - -
1787861705 26.11° C 46% 986.9 hPa 0 mm - - -
1787860808 26.11° C 43% 987.5 hPa 0 mm - - -
1787859906 26.67° C 44% 986.8 hPa 0 mm - - -

* Rain latest hour (hover to see other rain measurements)
** Current wind speed in m/s (hover to see current wind gust speed)